createdAt,value
2019-03-28T00:01:44.631Z,20.00
2019-03-28T00:04:14.375Z,20.00
2019-03-28T00:06:43.995Z,20.00
2019-03-28T00:09:13.703Z,20.00
2019-03-28T00:11:43.479Z,19.90
2019-03-28T00:14:13.235Z,20.00
2019-03-28T00:16:42.928Z,19.90
2019-03-28T00:19:12.575Z,19.90
2019-03-28T00:21:42.181Z,19.90
2019-03-28T00:24:20.484Z,19.90
2019-03-28T00:26:50.115Z,19.90
2019-03-28T00:29:19.808Z,19.90
2019-03-28T00:31:49.884Z,19.80
2019-03-28T00:34:19.483Z,19.70
2019-03-28T00:36:49.095Z,19.70
2019-03-28T00:39:18.803Z,19.70
2019-03-28T00:41:48.336Z,19.60
2019-03-28T00:44:18.008Z,19.50
2019-03-28T00:46:48.056Z,19.50
2019-03-28T00:49:18.090Z,19.40
2019-03-28T00:51:47.852Z,19.40
2019-03-28T00:54:17.603Z,19.40
2019-03-28T00:56:47.740Z,19.30
2019-03-28T00:59:17.539Z,19.30
2019-03-28T01:01:47.596Z,19.30
2019-03-28T01:04:17.270Z,19.20
2019-03-28T01:06:47.295Z,19.20
2019-03-28T01:09:17.188Z,19.20
2019-03-28T01:11:46.888Z,19.20
2019-03-28T01:14:16.747Z,19.10
2019-03-28T01:16:47.020Z,19.10
2019-03-28T01:19:16.640Z,19.10
2019-03-28T01:21:46.056Z,19.10
2019-03-28T01:24:15.435Z,19.10
2019-03-28T01:26:56.656Z,19.10
2019-03-28T01:29:16.511Z,19.00
2019-03-28T01:31:46.291Z,19.00
2019-03-28T01:34:15.771Z,19.00
2019-03-28T01:36:45.260Z,19.00
2019-03-28T01:39:14.703Z,18.90
2019-03-28T01:41:44.086Z,18.90
2019-03-28T01:44:13.459Z,18.90
2019-03-28T01:46:43.419Z,18.90
2019-03-28T01:49:12.764Z,18.90
2019-03-28T01:51:42.439Z,18.90
2019-03-28T01:54:12.344Z,18.80
2019-03-28T01:56:41.962Z,18.80
2019-03-28T01:59:11.524Z,18.80
2019-03-28T02:01:41.158Z,18.80
2019-03-28T02:04:10.587Z,18.80
2019-03-28T02:06:39.951Z,18.80
2019-03-28T02:09:09.924Z,18.80
2019-03-28T02:11:40.275Z,18.80
2019-03-28T02:14:10.058Z,18.70
2019-03-28T02:16:39.842Z,18.70
2019-03-28T02:19:09.467Z,18.70
2019-03-28T02:21:39.091Z,18.70
2019-03-28T02:24:09.458Z,18.70
2019-03-28T02:26:39.003Z,18.70
2019-03-28T02:29:09.318Z,18.70
2019-03-28T02:31:39.124Z,18.70
2019-03-28T02:34:08.770Z,18.60
2019-03-28T02:36:38.444Z,18.70
2019-03-28T02:39:08.534Z,18.60
2019-03-28T02:41:38.101Z,18.60
2019-03-28T02:44:07.807Z,18.60
2019-03-28T02:46:38.971Z,18.60
2019-03-28T02:49:08.591Z,18.50
2019-03-28T02:51:38.333Z,18.60
2019-03-28T02:54:08.067Z,18.60
2019-03-28T02:56:37.753Z,18.50
2019-03-28T02:59:07.476Z,18.50
2019-03-28T03:01:37.558Z,18.50
2019-03-28T03:04:07.327Z,18.50
2019-03-28T03:06:36.968Z,18.50
2019-03-28T03:09:09.127Z,18.50
2019-03-28T03:11:42.571Z,18.50
2019-03-28T03:14:11.786Z,18.50
2019-03-28T03:16:42.106Z,18.40
2019-03-28T03:19:11.809Z,18.40
2019-03-28T03:21:41.531Z,18.40
2019-03-28T03:24:11.346Z,18.40
2019-03-28T03:26:41.084Z,18.40
2019-03-28T03:29:10.722Z,18.40
2019-03-28T03:31:41.434Z,18.40
2019-03-28T03:34:11.262Z,18.40
2019-03-28T03:36:40.910Z,18.30
2019-03-28T03:39:11.289Z,18.30
2019-03-28T03:41:41.010Z,18.30
2019-03-28T03:44:10.839Z,18.30
2019-03-28T03:46:40.926Z,18.30
2019-03-28T03:49:10.653Z,18.30
2019-03-28T03:51:40.963Z,18.20
2019-03-28T03:54:10.868Z,18.20
2019-03-28T03:56:40.749Z,18.20
2019-03-28T03:59:11.668Z,18.20
2019-03-28T04:01:42.055Z,18.20
2019-03-28T04:04:11.865Z,18.20
2019-03-28T04:06:41.576Z,18.20
2019-03-28T04:09:11.333Z,18.20
2019-03-28T04:11:41.260Z,18.10
2019-03-28T04:14:10.954Z,18.20
2019-03-28T04:16:41.101Z,18.10
2019-03-28T04:19:10.788Z,18.20
2019-03-28T04:21:40.424Z,18.10
2019-03-28T04:24:10.155Z,18.10
2019-03-28T04:26:39.720Z,18.10
2019-03-28T04:29:09.518Z,18.10
2019-03-28T04:31:39.257Z,18.10
2019-03-28T04:34:09.664Z,18.00
2019-03-28T04:36:40.835Z,18.00
2019-03-28T04:39:11.196Z,18.00
2019-03-28T04:41:40.858Z,18.10
2019-03-28T04:44:10.944Z,18.00
2019-03-28T04:46:41.299Z,18.00
2019-03-28T04:49:11.155Z,18.00
2019-03-28T04:51:40.887Z,18.00
2019-03-28T04:54:10.580Z,18.00
2019-03-28T04:56:40.223Z,18.00
2019-03-28T04:59:09.774Z,18.00
2019-03-28T05:01:39.804Z,18.00
2019-03-28T05:04:09.354Z,17.90
2019-03-28T05:06:39.101Z,18.00
2019-03-28T05:09:09.082Z,18.00
2019-03-28T05:11:38.787Z,18.00
2019-03-28T05:14:08.440Z,18.00
2019-03-28T05:16:38.835Z,18.00
2019-03-28T05:19:08.534Z,17.90
2019-03-28T05:21:38.235Z,17.90
2019-03-28T05:24:07.817Z,17.90
2019-03-28T05:26:37.545Z,17.90
2019-03-28T05:29:07.187Z,17.90
2019-03-28T05:31:37.430Z,17.90
2019-03-28T05:34:07.133Z,17.90
2019-03-28T05:36:36.792Z,17.90
2019-03-28T05:39:07.745Z,17.90
2019-03-28T05:41:37.360Z,17.90
2019-03-28T05:44:07.031Z,17.90
2019-03-28T05:46:37.064Z,17.90
2019-03-28T05:49:06.784Z,17.90
2019-03-28T05:51:37.883Z,17.90
2019-03-28T05:54:08.112Z,17.90
2019-03-28T05:56:37.827Z,17.90
2019-03-28T05:59:11.202Z,17.90
2019-03-28T06:01:39.412Z,17.90
2019-03-28T06:04:09.044Z,17.90
2019-03-28T06:06:38.728Z,17.90
2019-03-28T06:09:09.303Z,17.90
2019-03-28T06:11:38.978Z,17.90
2019-03-28T06:14:11.745Z,18.00
2019-03-28T06:16:41.968Z,18.00
2019-03-28T06:19:12.366Z,17.90
2019-03-28T06:21:42.035Z,18.00
2019-03-28T06:24:12.210Z,17.90
2019-03-28T06:26:41.843Z,18.00
2019-03-28T06:29:23.185Z,17.90
2019-03-28T06:31:54.602Z,17.90
2019-03-28T06:34:14.535Z,18.00
2019-03-28T06:36:44.168Z,18.00
2019-03-28T06:39:13.790Z,18.00
2019-03-28T06:41:44.443Z,18.00
2019-03-28T06:44:14.173Z,17.90
2019-03-28T06:46:44.371Z,17.90
2019-03-28T06:49:14.025Z,18.00
2019-03-28T06:51:43.715Z,18.00
2019-03-28T06:54:13.340Z,18.00
2019-03-28T06:56:43.428Z,18.00
2019-03-28T06:59:13.387Z,18.10
2019-03-28T07:01:43.395Z,18.10
2019-03-28T07:04:13.071Z,18.10
2019-03-28T07:06:42.627Z,18.10
2019-03-28T07:09:12.248Z,18.10
2019-03-28T07:11:42.276Z,18.10
2019-03-28T07:14:11.895Z,18.10
2019-03-28T07:16:41.695Z,18.10
2019-03-28T07:19:11.409Z,18.20
2019-03-28T07:21:41.131Z,18.20
2019-03-28T07:24:10.805Z,18.20
2019-03-28T07:26:41.780Z,18.20
2019-03-28T07:29:11.518Z,18.30
2019-03-28T07:31:42.045Z,18.40
2019-03-28T07:34:13.563Z,18.60
2019-03-28T07:36:46.739Z,18.60
2019-03-28T07:39:18.934Z,18.50
2019-03-28T07:41:47.859Z,18.40
2019-03-28T07:44:17.577Z,18.40
2019-03-28T07:46:47.748Z,18.50
2019-03-28T07:49:17.505Z,18.50
2019-03-28T07:51:47.655Z,18.60
2019-03-28T07:54:17.362Z,18.60
2019-03-28T07:56:46.983Z,18.70
2019-03-28T07:59:17.340Z,18.70
2019-03-28T08:01:46.947Z,18.80
2019-03-28T08:04:16.564Z,18.90
2019-03-28T08:06:49.918Z,18.90
2019-03-28T08:09:18.308Z,18.90
2019-03-28T08:11:48.450Z,18.90
2019-03-28T08:14:18.773Z,18.80
2019-03-28T08:16:48.739Z,18.80
2019-03-28T08:19:18.563Z,18.80
2019-03-28T08:21:48.235Z,18.90
2019-03-28T08:24:17.927Z,18.90
2019-03-28T08:26:47.669Z,18.90
2019-03-28T08:29:17.308Z,18.90
2019-03-28T08:31:48.620Z,18.90
2019-03-28T08:34:18.696Z,18.90
2019-03-28T08:36:49.317Z,18.90
2019-03-28T08:39:19.267Z,19.00
2019-03-28T08:41:49.798Z,19.00
2019-03-28T08:44:22.636Z,19.00
2019-03-28T08:46:51.991Z,19.00
2019-03-28T08:49:21.744Z,19.00
2019-03-28T08:51:51.632Z,19.10
2019-03-28T08:54:21.311Z,19.10
2019-03-28T08:56:50.916Z,19.10
2019-03-28T08:59:20.581Z,19.20
2019-03-28T09:01:50.187Z,19.30
2019-03-28T09:04:19.727Z,19.40
2019-03-28T09:06:49.565Z,19.50
2019-03-28T09:09:21.137Z,19.50
2019-03-28T09:11:50.511Z,19.50
2019-03-28T09:14:20.477Z,19.40
2019-03-28T09:16:50.076Z,19.30
2019-03-28T09:19:19.676Z,19.30
2019-03-28T09:21:49.458Z,19.30
2019-03-28T09:24:19.058Z,19.30
2019-03-28T09:26:48.735Z,19.30
2019-03-28T09:29:19.036Z,19.20
2019-03-28T09:31:48.619Z,19.20
2019-03-28T09:34:18.231Z,19.20
2019-03-28T09:36:47.964Z,19.10
2019-03-28T09:39:17.741Z,19.10
2019-03-28T09:41:47.507Z,19.10
2019-03-28T09:44:17.134Z,19.10
2019-03-28T09:46:46.672Z,19.10
2019-03-28T09:49:17.301Z,19.10
2019-03-28T09:51:47.038Z,19.10
2019-03-28T09:54:16.645Z,19.10
2019-03-28T09:56:46.437Z,19.10
2019-03-28T09:59:16.829Z,19.10
2019-03-28T10:01:46.970Z,19.10
2019-03-28T10:04:16.623Z,19.10
2019-03-28T10:06:46.263Z,19.10
2019-03-28T10:09:16.180Z,19.20
2019-03-28T10:11:46.206Z,19.30
2019-03-28T10:14:16.011Z,19.40
2019-03-28T10:16:46.032Z,19.50
2019-03-28T10:19:16.343Z,19.70
2019-03-28T10:21:46.064Z,19.90
2019-03-28T10:24:15.931Z,19.90
2019-03-28T10:26:45.536Z,20.00
2019-03-28T10:29:15.275Z,20.10
2019-03-28T10:31:45.132Z,20.10
2019-03-28T10:34:15.202Z,20.10
2019-03-28T10:36:45.379Z,20.10
2019-03-28T10:39:15.198Z,20.20
2019-03-28T10:41:44.812Z,20.20
2019-03-28T10:44:14.558Z,20.20
2019-03-28T10:46:44.094Z,20.30
2019-03-28T10:49:13.623Z,20.30
2019-03-28T10:51:43.295Z,20.30
2019-03-28T10:55:02.396Z,20.30
2019-03-28T10:57:32.461Z,20.40
2019-03-28T11:00:02.184Z,20.50
2019-03-28T11:02:31.947Z,20.50
2019-03-28T11:05:01.559Z,20.60
2019-03-28T11:07:31.167Z,20.60
2019-03-28T11:10:01.080Z,20.70
2019-03-28T11:12:31.129Z,20.70
2019-03-28T11:15:00.768Z,20.70
2019-03-28T11:17:30.625Z,20.60
2019-03-28T11:20:00.319Z,20.60
2019-03-28T11:22:29.978Z,20.50
2019-03-28T11:25:00.396Z,20.60
2019-03-28T11:27:30.298Z,20.60
2019-03-28T11:29:59.971Z,20.70
2019-03-28T11:32:29.506Z,20.70
2019-03-28T11:34:59.130Z,20.70
2019-03-28T11:37:28.804Z,20.70
2019-03-28T11:39:58.436Z,20.80
2019-03-28T11:42:28.115Z,20.80
2019-03-28T11:44:57.799Z,20.80
2019-03-28T11:47:27.448Z,20.80
2019-03-28T11:49:57.223Z,20.90
2019-03-28T11:52:26.843Z,20.80
2019-03-28T11:54:56.643Z,20.80
2019-03-28T11:57:26.974Z,20.70
2019-03-28T11:59:58.026Z,20.60
2019-03-28T12:02:28.313Z,20.50
2019-03-28T12:04:57.844Z,20.50
2019-03-28T12:07:27.537Z,20.40
2019-03-28T12:09:57.307Z,20.40
2019-03-28T12:12:26.927Z,20.30
2019-03-28T12:14:56.464Z,20.30
2019-03-28T12:17:26.266Z,20.20
2019-03-28T12:19:55.950Z,20.20
2019-03-28T12:22:25.813Z,20.20
2019-03-28T12:24:55.520Z,20.20
2019-03-28T12:27:25.207Z,20.20
2019-03-28T12:29:54.815Z,20.10
2019-03-28T12:32:24.819Z,20.10
2019-03-28T12:34:54.424Z,20.00
2019-03-28T12:37:23.958Z,20.00
2019-03-28T12:39:53.620Z,20.00
2019-03-28T12:42:23.166Z,19.90
2019-03-28T12:44:57.294Z,19.90
2019-03-28T12:47:24.257Z,19.90
2019-03-28T12:49:53.937Z,19.90
2019-03-28T12:52:23.539Z,19.80
2019-03-28T12:54:53.252Z,19.80
2019-03-28T12:57:23.084Z,19.80
2019-03-28T12:59:53.770Z,19.80
2019-03-28T13:02:31.322Z,19.70
2019-03-28T13:04:55.424Z,19.70
2019-03-28T13:07:25.587Z,19.70
2019-03-28T13:09:55.391Z,19.70
2019-03-28T13:12:24.943Z,19.60
2019-03-28T13:14:54.864Z,19.60
2019-03-28T13:17:24.824Z,19.60
2019-03-28T13:19:54.434Z,19.60
2019-03-28T13:22:24.114Z,19.60
2019-03-28T13:24:53.995Z,19.60
2019-03-28T13:27:23.608Z,19.60
2019-03-28T13:29:55.107Z,19.50
2019-03-28T13:32:24.978Z,19.50
2019-03-28T13:34:54.570Z,19.60
2019-03-28T13:37:24.099Z,19.60
2019-03-28T13:39:53.726Z,19.60
2019-03-28T13:42:23.572Z,19.60
2019-03-28T13:44:53.276Z,19.60
2019-03-28T13:47:23.217Z,19.60
2019-03-28T13:49:52.801Z,19.60
2019-03-28T13:52:22.349Z,19.60
2019-03-28T13:54:53.133Z,19.50
2019-03-28T13:57:23.287Z,19.50
2019-03-28T13:59:52.858Z,19.50
2019-03-28T14:02:23.002Z,19.50
2019-03-28T14:04:52.596Z,19.50
2019-03-28T14:07:22.850Z,19.50
2019-03-28T14:09:52.651Z,19.40
2019-03-28T14:12:23.456Z,19.40
2019-03-28T14:14:53.122Z,19.40
2019-03-28T14:17:22.739Z,19.40
2019-03-28T14:19:52.467Z,19.40
2019-03-28T14:22:22.059Z,19.40
2019-03-28T14:24:52.242Z,19.40
2019-03-28T14:27:21.814Z,19.40
2019-03-28T14:29:51.329Z,19.40
2019-03-28T14:32:20.962Z,19.40
2019-03-28T14:34:50.550Z,19.40
2019-03-28T14:37:20.154Z,19.40
2019-03-28T14:39:49.750Z,19.50
2019-03-28T14:42:19.874Z,19.50
2019-03-28T14:44:49.711Z,19.50
2019-03-28T14:47:19.622Z,19.50
2019-03-28T14:49:49.378Z,19.60
2019-03-28T14:52:18.971Z,19.60
2019-03-28T14:54:48.612Z,19.70
2019-03-28T14:57:18.614Z,19.70
2019-03-28T14:59:48.606Z,19.60
2019-03-28T15:02:18.318Z,19.60
2019-03-28T15:04:47.887Z,19.60
2019-03-28T15:07:18.975Z,19.60
2019-03-28T15:09:48.610Z,19.60
2019-03-28T15:12:18.201Z,19.60
2019-03-28T15:14:47.802Z,19.60
2019-03-28T15:17:17.372Z,19.50
2019-03-28T15:19:46.969Z,19.50
2019-03-28T15:22:16.564Z,19.50
2019-03-28T15:24:46.442Z,19.50
2019-03-28T15:27:16.058Z,19.50
2019-03-28T15:29:45.651Z,19.50
2019-03-28T15:32:15.283Z,19.50
2019-03-28T15:34:46.425Z,19.50
2019-03-28T15:37:16.014Z,19.50
2019-03-28T15:39:45.626Z,19.50
2019-03-28T15:42:15.142Z,19.50
2019-03-28T15:44:44.639Z,19.50
2019-03-28T15:47:14.858Z,19.40
2019-03-28T15:49:44.442Z,19.40
2019-03-28T15:52:14.034Z,19.40
2019-03-28T15:54:43.662Z,19.50
2019-03-28T15:57:13.463Z,19.50
2019-03-28T15:59:43.478Z,19.50
2019-03-28T16:02:13.903Z,19.50
2019-03-28T16:04:43.491Z,19.50
2019-03-28T16:07:13.066Z,19.50
2019-03-28T16:09:42.617Z,19.50
2019-03-28T16:12:12.284Z,19.60
2019-03-28T16:14:41.886Z,19.60
2019-03-28T16:17:11.503Z,19.60
2019-03-28T16:19:41.115Z,19.60
2019-03-28T16:22:11.644Z,19.60
2019-03-28T16:24:41.774Z,19.60
2019-03-28T16:27:11.366Z,19.60
2019-03-28T16:29:40.870Z,19.60
2019-03-28T16:32:10.783Z,19.60
2019-03-28T16:34:43.347Z,19.60
2019-03-28T16:37:11.671Z,19.50
2019-03-28T16:39:41.198Z,19.50
2019-03-28T16:42:10.770Z,19.50
2019-03-28T16:44:40.387Z,19.50
2019-03-28T16:47:10.446Z,19.50
2019-03-28T16:49:40.043Z,19.50
2019-03-28T16:52:09.624Z,19.50
2019-03-28T16:54:39.890Z,19.50
2019-03-28T16:57:09.654Z,19.50
2019-03-28T16:59:39.734Z,19.50
2019-03-28T17:02:09.618Z,19.60
2019-03-28T17:04:39.217Z,19.90
2019-03-28T17:07:08.840Z,20.10
2019-03-28T17:09:39.154Z,20.30
2019-03-28T17:12:09.186Z,20.40
2019-03-28T17:14:38.962Z,20.60
2019-03-28T17:17:08.804Z,20.80
2019-03-28T17:19:38.852Z,21.10
2019-03-28T17:22:09.567Z,21.20
2019-03-28T17:24:39.969Z,21.40
2019-03-28T17:27:09.578Z,21.40
2019-03-28T17:29:39.157Z,21.50
2019-03-28T17:32:08.949Z,21.70
2019-03-28T17:34:38.623Z,21.80
2019-03-28T17:37:08.219Z,21.90
2019-03-28T17:39:38.025Z,21.90
2019-03-28T17:42:07.623Z,22.00
2019-03-28T17:44:37.291Z,22.10
2019-03-28T17:47:07.204Z,22.00
2019-03-28T17:49:36.799Z,22.00
2019-03-28T17:52:06.415Z,22.00
2019-03-28T17:54:37.696Z,22.10
2019-03-28T17:57:07.791Z,22.10
2019-03-28T17:59:37.770Z,22.00
2019-03-28T18:02:07.755Z,22.00
2019-03-28T18:04:47.479Z,22.00
2019-03-28T18:07:08.687Z,22.00
2019-03-28T18:09:38.555Z,22.00
2019-03-28T18:12:08.140Z,21.90
2019-03-28T18:14:37.734Z,21.90
2019-03-28T18:17:07.369Z,22.00
2019-03-28T18:19:36.955Z,22.00
2019-03-28T18:22:06.481Z,22.00
2019-03-28T18:24:36.379Z,21.90
2019-03-28T18:27:05.965Z,21.80
2019-03-28T18:29:36.080Z,21.70
2019-03-28T18:32:05.875Z,21.80
2019-03-28T18:34:35.461Z,21.80
2019-03-28T18:37:05.340Z,21.80
2019-03-28T18:39:34.957Z,21.70
2019-03-28T18:42:05.223Z,21.70
2019-03-28T18:44:35.346Z,21.70
2019-03-28T18:47:05.569Z,21.70
2019-03-28T18:49:35.150Z,21.70
2019-03-28T18:52:07.211Z,21.70
2019-03-28T18:54:36.254Z,21.70
2019-03-28T18:57:05.855Z,21.60
2019-03-28T18:59:35.666Z,21.50
2019-03-28T19:02:05.986Z,21.60
2019-03-28T19:04:35.903Z,21.70
2019-03-28T19:07:05.504Z,21.80
2019-03-28T19:09:35.426Z,21.70
2019-03-28T19:12:05.025Z,21.70
2019-03-28T19:14:34.547Z,21.60
2019-03-28T19:17:04.555Z,21.50
2019-03-28T19:19:39.500Z,21.40
2019-03-28T19:22:05.393Z,21.30
2019-03-28T19:24:34.966Z,21.20
2019-03-28T19:27:04.505Z,21.20
2019-03-28T19:29:34.090Z,21.30
2019-03-28T19:32:03.847Z,21.30
2019-03-28T19:34:33.454Z,21.30
2019-03-28T19:37:03.107Z,21.30
2019-03-28T19:39:33.370Z,21.20
2019-03-28T19:42:04.708Z,21.20
2019-03-28T19:44:34.307Z,21.30
2019-03-28T19:47:04.347Z,21.40
2019-03-28T19:49:33.948Z,21.40
2019-03-28T19:52:03.558Z,21.40
2019-03-28T19:54:33.262Z,21.30
2019-03-28T19:57:02.890Z,21.30
2019-03-28T19:59:32.947Z,21.40
2019-03-28T20:02:04.228Z,21.40
2019-03-28T20:04:33.818Z,21.40
2019-03-28T20:07:03.414Z,21.40
2019-03-28T20:09:33.201Z,21.40
2019-03-28T20:12:03.493Z,21.40
2019-03-28T20:14:33.471Z,21.40
2019-03-28T20:17:03.339Z,21.50
2019-03-28T20:19:32.856Z,21.50
2019-03-28T20:22:02.490Z,21.40
2019-03-28T20:24:32.214Z,21.40
2019-03-28T20:27:01.828Z,21.40
2019-03-28T20:29:33.387Z,21.50
2019-03-28T20:32:02.843Z,21.50
2019-03-28T20:34:32.471Z,21.50
2019-03-28T20:37:02.063Z,21.50
2019-03-28T20:39:32.830Z,21.40
2019-03-28T20:42:02.689Z,21.40
2019-03-28T20:44:32.394Z,21.20
2019-03-28T20:47:02.059Z,21.20
2019-03-28T20:49:31.899Z,21.20
2019-03-28T20:52:03.998Z,21.30
2019-03-28T20:54:34.122Z,21.40
2019-03-28T20:57:03.936Z,21.40
2019-03-28T20:59:33.765Z,21.30
2019-03-28T21:02:04.202Z,21.20
2019-03-28T21:04:34.409Z,21.20
2019-03-28T21:07:04.346Z,21.10
2019-03-28T21:09:33.993Z,21.10
2019-03-28T21:12:03.847Z,21.20
2019-03-28T21:14:33.426Z,21.30
2019-03-28T21:17:03.036Z,21.30
2019-03-28T21:19:32.620Z,21.20
2019-03-28T21:22:02.215Z,21.10
2019-03-28T21:24:31.884Z,21.00
2019-03-28T21:27:01.506Z,21.10
2019-03-28T21:29:33.807Z,21.30
2019-03-28T21:32:03.676Z,21.30
2019-03-28T21:34:33.105Z,21.20
2019-03-28T21:37:02.702Z,21.20
2019-03-28T21:39:32.327Z,21.10
2019-03-28T21:42:01.866Z,21.00
2019-03-28T21:44:31.471Z,20.90
2019-03-28T21:47:01.922Z,20.80
2019-03-28T21:49:31.533Z,20.70
2019-03-28T21:52:01.177Z,20.70
2019-03-28T21:54:30.693Z,20.70
2019-03-28T21:57:00.299Z,20.60
2019-03-28T21:59:30.451Z,20.60
2019-03-28T22:02:02.034Z,20.50
2019-03-28T22:04:31.663Z,20.50
2019-03-28T22:07:01.523Z,20.50
2019-03-28T22:09:31.145Z,20.50
2019-03-28T22:12:01.054Z,20.50
2019-03-28T22:14:31.806Z,20.50
2019-03-28T22:17:02.003Z,20.40
2019-03-28T22:19:31.709Z,20.40
2019-03-28T22:22:02.001Z,20.40
2019-03-28T22:24:32.362Z,20.40
2019-03-28T22:27:01.971Z,20.30
2019-03-28T22:29:31.590Z,20.30
2019-03-28T22:32:01.203Z,20.30
2019-03-28T22:34:30.787Z,20.30
2019-03-28T22:37:03.457Z,20.30
2019-03-28T22:39:31.799Z,20.30
2019-03-28T22:42:01.426Z,20.30
2019-03-28T22:44:33.715Z,20.30
2019-03-28T22:47:02.434Z,20.40
2019-03-28T22:49:32.141Z,20.30
2019-03-28T22:52:01.668Z,20.30
2019-03-28T22:54:31.856Z,20.30
2019-03-28T22:57:01.374Z,20.30
2019-03-28T22:59:30.874Z,20.30
2019-03-28T23:02:00.478Z,20.20
2019-03-28T23:04:30.925Z,20.20
2019-03-28T23:07:10.356Z,20.10
2019-03-28T23:09:31.973Z,20.10
2019-03-28T23:12:01.509Z,20.10
2019-03-28T23:14:31.126Z,20.00
2019-03-28T23:17:01.383Z,20.00
2019-03-28T23:19:31.942Z,20.00
2019-03-28T23:22:02.011Z,19.90
2019-03-28T23:24:31.623Z,19.80
2019-03-28T23:27:01.210Z,19.80
2019-03-28T23:29:31.044Z,19.70
2019-03-28T23:32:01.487Z,19.60
2019-03-28T23:34:31.156Z,19.50
2019-03-28T23:37:00.780Z,19.40
2019-03-28T23:39:30.526Z,19.40
2019-03-28T23:42:00.017Z,19.30
2019-03-28T23:44:29.606Z,19.30
2019-03-28T23:46:59.729Z,19.20
2019-03-28T23:49:29.222Z,19.20
2019-03-28T23:51:58.805Z,19.10
2019-03-28T23:54:28.566Z,19.10
2019-03-28T23:56:58.153Z,19.00
2019-03-28T23:59:27.740Z,19.00
